createdAt,value
2023-10-09T00:02:27.833Z,11.30
2023-10-09T00:05:24.216Z,7.87
2023-10-09T00:08:10.627Z,8.00
2023-10-09T00:10:56.274Z,12.20
2023-10-09T00:13:51.150Z,11.40
2023-10-09T00:16:37.768Z,11.70
2023-10-09T00:19:32.653Z,9.23
2023-10-09T00:22:28.102Z,10.43
2023-10-09T00:25:14.017Z,12.37
2023-10-09T00:28:00.838Z,11.70
2023-10-09T00:30:46.473Z,9.97
2023-10-09T00:33:31.708Z,8.60
2023-10-09T00:36:20.985Z,13.63
2023-10-09T00:39:14.534Z,9.57
2023-10-09T00:42:02.279Z,8.83
2023-10-09T00:44:49.784Z,10.03
2023-10-09T00:47:35.834Z,9.30
2023-10-09T00:50:21.559Z,6.60
2023-10-09T00:53:13.638Z,10.43
2023-10-09T00:56:12.453Z,9.80
2023-10-09T00:59:10.036Z,7.10
2023-10-09T01:02:06.119Z,9.53
2023-10-09T01:04:51.654Z,10.20
2023-10-09T01:07:41.138Z,11.37
2023-10-09T01:10:34.251Z,11.00
2023-10-09T01:13:19.598Z,6.68
2023-10-09T01:16:06.722Z,8.33
2023-10-09T01:18:54.609Z,9.87
2023-10-09T01:21:43.652Z,9.00
2023-10-09T01:24:32.870Z,11.37
2023-10-09T01:27:18.455Z,7.77
2023-10-09T01:30:04.141Z,8.37
2023-10-09T01:32:49.826Z,10.13
2023-10-09T01:35:35.108Z,9.13
2023-10-09T01:38:31.311Z,8.53
2023-10-09T01:41:21.185Z,8.57
2023-10-09T01:44:11.405Z,9.27
2023-10-09T01:46:59.200Z,9.33
2023-10-09T01:49:44.903Z,8.30
2023-10-09T01:52:31.276Z,9.77
2023-10-09T01:55:34.929Z,7.67
2023-10-09T01:58:23.049Z,8.97
2023-10-09T02:01:08.753Z,9.07
2023-10-09T02:03:55.596Z,8.10
2023-10-09T02:06:41.265Z,7.73
2023-10-09T02:09:32.576Z,6.00
2023-10-09T02:12:19.067Z,7.37
2023-10-09T02:15:16.808Z,7.13
2023-10-09T02:18:17.405Z,8.70
2023-10-09T02:21:03.314Z,8.30
2023-10-09T02:23:51.895Z,6.67
2023-10-09T02:26:40.182Z,6.67
2023-10-09T02:29:25.946Z,7.67
2023-10-09T02:32:26.776Z,8.50
2023-10-09T02:35:32.471Z,8.07
2023-10-09T02:38:18.722Z,6.00
2023-10-09T02:41:04.422Z,6.07
2023-10-09T02:43:56.345Z,13.23
2023-10-09T02:46:41.950Z,6.50
2023-10-09T02:49:28.199Z,7.47
2023-10-09T02:52:18.242Z,6.33
2023-10-09T02:55:09.202Z,5.70
2023-10-09T02:58:06.429Z,6.80
2023-10-09T03:00:52.849Z,7.90
2023-10-09T03:03:39.628Z,8.50
2023-10-09T03:06:29.794Z,7.97
2023-10-09T03:09:18.060Z,8.23
2023-10-09T03:12:06.024Z,5.13
2023-10-09T03:14:51.927Z,6.27
2023-10-09T03:17:37.633Z,5.23
2023-10-09T03:20:22.855Z,6.20
2023-10-09T03:23:08.992Z,6.67
2023-10-09T03:25:59.150Z,6.50
2023-10-09T03:28:50.761Z,6.37
2023-10-09T03:31:37.732Z,5.30
2023-10-09T03:34:24.937Z,4.80
2023-10-09T03:37:23.396Z,6.27
2023-10-09T03:40:09.910Z,6.47
2023-10-09T03:42:55.600Z,6.00
2023-10-09T03:45:53.740Z,4.90
2023-10-09T03:48:39.120Z,7.80
2023-10-09T03:51:24.857Z,4.97
2023-10-09T03:54:10.431Z,6.07
2023-10-09T03:57:00.059Z,5.93
2023-10-09T03:59:48.230Z,4.40
2023-10-09T04:02:33.789Z,4.50
2023-10-09T04:05:19.287Z,7.17
2023-10-09T04:08:13.362Z,6.10
2023-10-09T04:11:05.500Z,6.47
2023-10-09T04:13:53.390Z,6.50
2023-10-09T04:16:53.089Z,4.83
2023-10-09T04:19:49.300Z,6.17
2023-10-09T04:22:40.186Z,4.27
2023-10-09T04:25:30.731Z,4.43
2023-10-09T04:28:16.177Z,5.23
2023-10-09T04:31:07.385Z,4.50
2023-10-09T04:33:56.423Z,5.27
2023-10-09T04:36:47.809Z,6.63
2023-10-09T04:39:33.426Z,4.47
2023-10-09T04:42:37.381Z,6.33
2023-10-09T04:45:42.862Z,5.57
2023-10-09T04:48:34.416Z,4.80
2023-10-09T04:51:23.276Z,4.13
2023-10-09T04:54:14.552Z,4.80
2023-10-09T04:57:01.101Z,5.37
2023-10-09T04:59:48.495Z,5.77
2023-10-09T05:02:38.281Z,5.63
2023-10-09T05:05:43.402Z,4.80
2023-10-09T05:08:29.233Z,4.17
2023-10-09T05:11:33.191Z,4.80
2023-10-09T05:14:20.820Z,5.93
2023-10-09T05:17:10.372Z,5.03
2023-10-09T05:20:18.512Z,6.77
2023-10-09T05:23:24.619Z,4.40
2023-10-09T05:26:30.106Z,3.97
2023-10-09T05:29:33.671Z,4.10
2023-10-09T05:32:29.193Z,4.93
2023-10-09T05:35:21.091Z,4.33
2023-10-09T05:38:16.266Z,3.20
2023-10-09T05:41:21.685Z,4.00
2023-10-09T05:44:25.399Z,4.63
2023-10-09T05:47:28.765Z,4.83
2023-10-09T05:50:15.077Z,5.00
2023-10-09T05:53:03.060Z,5.23
2023-10-09T05:56:06.685Z,5.27
2023-10-09T05:59:15.006Z,3.73
2023-10-09T06:02:00.744Z,4.30
2023-10-09T06:04:55.456Z,5.83
2023-10-09T06:08:01.157Z,6.37
2023-10-09T06:10:48.716Z,5.53
2023-10-09T06:13:42.187Z,5.97
2023-10-09T06:16:43.090Z,5.77
2023-10-09T06:19:33.065Z,6.10
2023-10-09T06:22:36.923Z,3.97
2023-10-09T06:25:34.177Z,4.97
2023-10-09T06:28:20.802Z,4.83
2023-10-09T06:31:25.941Z,4.60
2023-10-09T06:34:16.604Z,4.40
2023-10-09T06:37:28.940Z,4.13
2023-10-09T06:40:32.855Z,5.60
2023-10-09T06:43:22.627Z,5.17
2023-10-09T06:46:23.114Z,6.00
2023-10-09T06:49:28.590Z,6.33
2023-10-09T06:52:17.036Z,6.40
2023-10-09T06:55:10.641Z,3.53
2023-10-09T06:57:55.820Z,5.03
2023-10-09T07:01:02.066Z,4.67
2023-10-09T07:03:53.760Z,7.70
2023-10-09T07:06:39.526Z,9.00
2023-10-09T07:09:28.624Z,5.20
2023-10-09T07:12:27.442Z,4.83
2023-10-09T07:15:12.887Z,7.47
2023-10-09T07:18:18.376Z,5.30
2023-10-09T07:21:12.455Z,5.80
2023-10-09T07:24:05.699Z,6.30
2023-10-09T07:26:54.156Z,4.15
2023-10-09T07:29:49.050Z,5.13
2023-10-09T07:32:36.605Z,5.17
2023-10-09T07:35:41.868Z,7.03
2023-10-09T07:38:36.860Z,4.60
2023-10-09T07:41:22.193Z,5.37
2023-10-09T07:44:20.352Z,4.70
2023-10-09T07:47:26.898Z,4.40
2023-10-09T07:50:22.546Z,3.20
2023-10-09T07:53:27.823Z,4.43
2023-10-09T07:56:19.618Z,4.43
2023-10-09T07:59:11.803Z,3.22
2023-10-09T08:02:00.412Z,4.17
2023-10-09T08:04:54.535Z,4.27
2023-10-09T08:08:08.442Z,3.33
2023-10-09T08:11:17.819Z,5.50
2023-10-09T08:14:03.904Z,6.33
2023-10-09T08:17:07.004Z,5.27
2023-10-09T08:19:55.683Z,5.13
2023-10-09T08:22:44.891Z,5.07
2023-10-09T08:25:33.468Z,4.23
2023-10-09T08:28:37.373Z,8.60
2023-10-09T08:31:48.828Z,9.63
2023-10-09T08:37:38.582Z,7.40
2023-10-09T08:40:34.465Z,6.53
2023-10-09T08:43:21.223Z,5.40
2023-10-09T08:46:07.203Z,5.00
2023-10-09T08:48:52.463Z,12.93
2023-10-09T08:51:39.042Z,8.47
2023-10-09T08:54:25.094Z,6.90
2023-10-09T08:57:11.224Z,6.50
2023-10-09T08:59:58.095Z,6.70
2023-10-09T09:02:44.396Z,5.77
2023-10-09T09:05:30.075Z,5.97
2023-10-09T09:08:31.722Z,4.97
2023-10-09T09:11:21.225Z,5.57
2023-10-09T09:14:19.861Z,5.53
2023-10-09T09:17:12.311Z,7.00
2023-10-09T09:19:58.781Z,5.43
2023-10-09T09:22:57.474Z,5.17
2023-10-09T09:25:49.425Z,6.33
2023-10-09T09:28:40.174Z,5.07
2023-10-09T09:31:26.085Z,5.27
2023-10-09T09:34:17.744Z,6.03
2023-10-09T09:37:05.611Z,4.27
2023-10-09T09:39:56.211Z,6.67
2023-10-09T09:42:49.628Z,5.17
2023-10-09T09:45:39.872Z,6.13
2023-10-09T09:48:27.200Z,7.17
2023-10-09T09:51:16.226Z,5.43
2023-10-09T09:54:03.940Z,7.23
2023-10-09T09:56:52.857Z,8.30
2023-10-09T09:59:51.125Z,7.60
2023-10-09T10:02:39.213Z,7.77
2023-10-09T10:05:30.909Z,9.27
2023-10-09T10:08:22.907Z,8.63
2023-10-09T10:11:15.240Z,7.47
2023-10-09T10:14:08.381Z,7.00
2023-10-09T10:17:20.291Z,6.10
2023-10-09T10:20:15.772Z,8.57
2023-10-09T10:23:22.216Z,6.77
2023-10-09T10:26:28.202Z,7.57
2023-10-09T10:29:24.332Z,9.00
2023-10-09T10:32:10.252Z,6.97
2023-10-09T10:34:59.630Z,6.03
2023-10-09T10:38:14.499Z,7.20
2023-10-09T10:41:23.568Z,5.27
2023-10-09T10:44:27.269Z,7.80
2023-10-09T10:50:32.988Z,8.60
2023-10-09T10:53:20.662Z,8.63
2023-10-09T10:56:15.070Z,6.47
2023-10-09T10:59:00.724Z,7.07
2023-10-09T11:02:14.939Z,14.77
2023-10-09T11:05:16.126Z,8.97
2023-10-09T11:08:10.126Z,8.87
2023-10-09T11:11:11.678Z,9.03
2023-10-09T11:14:09.239Z,7.03
2023-10-09T11:16:59.524Z,7.73
2023-10-09T11:19:45.071Z,7.77
2023-10-09T11:22:30.932Z,9.50
2023-10-09T11:25:19.615Z,7.07
2023-10-09T11:28:29.119Z,7.43
2023-10-09T11:31:17.411Z,8.00
2023-10-09T11:34:04.038Z,7.07
2023-10-09T11:36:57.053Z,7.40
2023-10-09T11:39:56.819Z,6.53
2023-10-09T11:42:50.296Z,6.40
2023-10-09T11:45:39.120Z,8.13
2023-10-09T11:48:40.732Z,9.10
2023-10-09T11:51:26.239Z,5.63
2023-10-09T11:54:30.541Z,6.60
2023-10-09T11:57:18.127Z,9.87
2023-10-09T12:00:24.000Z,5.90
2023-10-09T12:03:10.524Z,9.30
2023-10-09T12:06:13.306Z,7.87
2023-10-09T12:08:59.505Z,6.27
2023-10-09T12:12:03.125Z,7.23
2023-10-09T12:14:52.698Z,7.60
2023-10-09T12:17:45.559Z,8.70
2023-10-09T12:20:31.446Z,6.20
2023-10-09T12:23:16.776Z,7.17
2023-10-09T12:26:06.132Z,7.33
2023-10-09T12:28:51.753Z,9.50
2023-10-09T12:31:37.210Z,6.57
2023-10-09T12:34:27.656Z,6.03
2023-10-09T12:37:13.629Z,7.63
2023-10-09T12:39:59.341Z,5.87
2023-10-09T12:42:47.117Z,6.00
2023-10-09T12:45:35.624Z,7.10
2023-10-09T12:48:21.123Z,7.13
2023-10-09T12:51:07.597Z,7.27
2023-10-09T12:53:58.422Z,6.67
2023-10-09T12:56:47.029Z,10.70
2023-10-09T12:59:32.419Z,5.70
2023-10-09T13:02:29.834Z,7.17
2023-10-09T13:05:27.182Z,7.50
2023-10-09T13:08:12.920Z,5.40
2023-10-09T13:11:05.642Z,4.57
2023-10-09T13:13:53.960Z,7.88
2023-10-09T13:16:39.531Z,6.13
2023-10-09T13:19:25.505Z,8.07
2023-10-09T13:22:14.686Z,6.90
2023-10-09T13:25:05.482Z,6.23
2023-10-09T13:27:54.413Z,7.77
2023-10-09T13:30:50.217Z,6.97
2023-10-09T13:33:38.190Z,8.33
2023-10-09T13:36:33.417Z,5.40
2023-10-09T13:39:25.897Z,6.93
2023-10-09T13:42:12.369Z,5.60
2023-10-09T13:44:58.009Z,8.30
2023-10-09T13:47:46.523Z,10.87
2023-10-09T13:50:34.368Z,6.53
2023-10-09T13:53:19.771Z,11.77
2023-10-09T13:56:08.018Z,9.70
2023-10-09T13:58:54.987Z,11.17
2023-10-09T14:01:40.841Z,17.60
2023-10-09T14:04:29.396Z,10.27
2023-10-09T14:07:17.974Z,9.17
2023-10-09T14:10:18.334Z,14.63
2023-10-09T14:13:13.193Z,17.07
2023-10-09T14:16:01.019Z,16.40
2023-10-09T14:18:46.452Z,15.87
2023-10-09T14:21:33.926Z,16.13
2023-10-09T14:24:20.605Z,16.90
2023-10-09T14:27:07.562Z,14.17
2023-10-09T14:29:57.654Z,12.43
2023-10-09T14:32:52.599Z,14.67
2023-10-09T14:35:40.739Z,12.80
2023-10-09T14:38:33.249Z,14.97
2023-10-09T14:41:18.499Z,16.90
2023-10-09T14:44:04.107Z,14.20
2023-10-09T14:46:50.394Z,14.60
2023-10-09T14:49:44.787Z,15.07
2023-10-09T14:52:30.177Z,15.03
2023-10-09T14:55:21.854Z,15.40
2023-10-09T14:58:07.083Z,12.50
2023-10-09T15:00:54.137Z,11.70
2023-10-09T15:03:39.648Z,14.13
2023-10-09T15:06:26.749Z,15.10
2023-10-09T15:09:22.872Z,18.00
2023-10-09T15:12:08.930Z,22.33
2023-10-09T15:14:57.759Z,20.57
2023-10-09T15:17:49.496Z,24.40
2023-10-09T15:20:36.647Z,18.80
2023-10-09T15:23:22.174Z,22.23
2023-10-09T15:26:08.322Z,23.00
2023-10-09T15:28:53.784Z,28.60
2023-10-09T15:31:40.406Z,23.57
2023-10-09T15:34:27.642Z,26.30
2023-10-09T15:37:14.399Z,32.53
2023-10-09T15:40:05.606Z,34.33
2023-10-09T15:42:51.822Z,32.83
2023-10-09T15:45:43.280Z,30.43
2023-10-09T15:48:29.137Z,36.43
2023-10-09T15:51:15.766Z,29.93
2023-10-09T15:54:02.490Z,40.00
2023-10-09T15:56:55.977Z,31.00
2023-10-09T15:59:52.682Z,37.50
2023-10-09T16:02:37.977Z,36.33
2023-10-09T16:05:27.083Z,44.27
2023-10-09T16:08:12.759Z,38.23
2023-10-09T16:10:59.844Z,37.53
2023-10-09T16:13:45.446Z,35.57
2023-10-09T16:16:32.057Z,36.97
2023-10-09T16:19:17.588Z,33.77
2023-10-09T16:22:04.697Z,38.93
2023-10-09T16:24:51.443Z,32.93
2023-10-09T16:27:37.581Z,34.40
2023-10-09T16:30:22.641Z,24.70
2023-10-09T16:33:10.005Z,25.50
2023-10-09T16:35:57.569Z,24.97
2023-10-09T16:38:44.675Z,40.03
2023-10-09T16:41:30.327Z,40.97
2023-10-09T16:44:18.910Z,42.03
2023-10-09T16:47:05.166Z,42.80
2023-10-09T16:49:52.883Z,46.73
2023-10-09T16:52:39.691Z,42.20
2023-10-09T16:55:28.195Z,34.27
2023-10-09T16:58:14.528Z,35.90
2023-10-09T17:01:01.925Z,48.97
2023-10-09T17:03:55.676Z,42.80
2023-10-09T17:06:42.198Z,38.30
2023-10-09T17:09:28.586Z,37.03
2023-10-09T17:12:18.535Z,39.50
2023-10-09T17:15:05.066Z,36.83
2023-10-09T17:17:50.839Z,37.20
2023-10-09T17:20:49.804Z,44.20
2023-10-09T17:23:35.196Z,37.77
2023-10-09T17:26:22.458Z,36.03
2023-10-09T17:29:11.447Z,40.40
2023-10-09T17:31:56.757Z,31.47
2023-10-09T17:34:44.773Z,30.83
2023-10-09T17:37:30.267Z,30.97
2023-10-09T17:40:19.511Z,28.47
2023-10-09T17:43:06.313Z,31.50
2023-10-09T17:45:55.631Z,29.10
2023-10-09T17:48:43.129Z,31.03
2023-10-09T17:51:28.886Z,27.97
2023-10-09T17:54:15.577Z,26.43
2023-10-09T17:57:01.128Z,30.00
2023-10-09T17:59:46.833Z,29.57
2023-10-09T18:02:33.147Z,30.57
2023-10-09T18:05:20.880Z,21.77
2023-10-09T18:08:08.018Z,26.13
2023-10-09T18:11:06.895Z,26.57
2023-10-09T18:13:52.306Z,24.83
2023-10-09T18:16:38.952Z,26.23
2023-10-09T18:19:24.828Z,25.10
2023-10-09T18:22:13.372Z,23.67
2023-10-09T18:24:59.422Z,26.17
2023-10-09T18:27:46.926Z,23.40
2023-10-09T18:30:33.119Z,22.90
2023-10-09T18:33:18.288Z,18.90
2023-10-09T18:36:10.668Z,24.00
2023-10-09T18:38:56.612Z,21.20
2023-10-09T18:41:45.778Z,19.07
2023-10-09T18:44:31.219Z,21.50
2023-10-09T18:47:20.590Z,22.43
2023-10-09T18:50:13.483Z,20.10
2023-10-09T18:53:03.471Z,19.98
2023-10-09T18:55:52.084Z,16.50
2023-10-09T18:58:37.702Z,19.77
2023-10-09T19:01:24.012Z,18.37
2023-10-09T19:04:09.727Z,22.17
2023-10-09T19:06:55.666Z,23.20
2023-10-09T19:09:41.603Z,17.67
2023-10-09T19:12:26.630Z,20.47
2023-10-09T19:15:12.207Z,22.80
2023-10-09T19:17:58.771Z,20.90
2023-10-09T19:20:44.073Z,19.13
2023-10-09T19:23:29.351Z,18.60
2023-10-09T19:26:18.952Z,17.00
2023-10-09T19:29:04.298Z,15.67
2023-10-09T19:31:50.776Z,16.47
2023-10-09T19:34:36.120Z,17.93
2023-10-09T19:37:22.921Z,16.83
2023-10-09T19:40:09.323Z,18.97
2023-10-09T19:42:55.242Z,19.37
2023-10-09T19:45:41.774Z,15.87
2023-10-09T19:48:27.070Z,13.80
2023-10-09T19:51:14.712Z,18.27
2023-10-09T19:54:00.260Z,16.37
2023-10-09T19:56:46.670Z,15.33
2023-10-09T19:59:32.248Z,17.40
2023-10-09T20:02:17.926Z,14.67
2023-10-09T20:05:03.991Z,14.50
2023-10-09T20:07:49.777Z,15.77
2023-10-09T20:10:38.992Z,13.67
2023-10-09T20:13:24.518Z,14.10
2023-10-09T20:16:10.506Z,12.80
2023-10-09T20:18:56.337Z,15.00
2023-10-09T20:21:45.398Z,14.20
2023-10-09T20:24:31.887Z,13.30
2023-10-09T20:27:18.451Z,12.60
2023-10-09T20:30:04.847Z,12.30
2023-10-09T20:32:50.289Z,11.93
2023-10-09T20:35:41.058Z,10.03
2023-10-09T20:38:27.217Z,11.33
2023-10-09T20:41:12.638Z,13.33
2023-10-09T20:43:58.057Z,10.43
2023-10-09T20:46:43.557Z,10.60
2023-10-09T20:49:32.664Z,8.20
2023-10-09T20:52:17.752Z,10.77
2023-10-09T20:55:03.511Z,11.47
2023-10-09T20:57:57.970Z,9.83
2023-10-09T21:00:43.998Z,11.07
2023-10-09T21:03:47.183Z,15.23
2023-10-09T21:07:08.576Z,10.50
2023-10-09T21:09:54.357Z,11.50
2023-10-09T21:12:40.736Z,11.43
2023-10-09T21:15:27.993Z,8.20
2023-10-09T21:18:13.419Z,10.67
2023-10-09T21:21:00.810Z,9.77
2023-10-09T21:23:46.543Z,11.13
2023-10-09T21:26:32.538Z,11.57
2023-10-09T21:29:19.661Z,11.80
2023-10-09T21:32:08.169Z,10.30
2023-10-09T21:34:55.148Z,9.60
2023-10-09T21:37:40.692Z,10.20
2023-10-09T21:40:31.579Z,10.23
2023-10-09T21:43:19.169Z,10.33
2023-10-09T21:46:07.780Z,12.03
2023-10-09T21:48:53.059Z,9.23
2023-10-09T21:51:38.666Z,12.80
2023-10-09T21:54:23.998Z,10.90
2023-10-09T21:57:10.505Z,10.67
2023-10-09T21:59:55.603Z,8.57
2023-10-09T22:02:41.267Z,8.97
2023-10-09T22:05:27.714Z,9.10
2023-10-09T22:08:15.536Z,8.30
2023-10-09T22:11:02.932Z,9.87
2023-10-09T22:13:48.795Z,8.13
2023-10-09T22:16:39.713Z,9.33
2023-10-09T22:19:36.439Z,8.07
2023-10-09T22:22:23.727Z,7.73
2023-10-09T22:25:09.400Z,9.50
2023-10-09T22:28:03.803Z,7.97
2023-10-09T22:30:49.052Z,7.67
2023-10-09T22:33:50.102Z,8.80
2023-10-09T22:36:53.244Z,7.10
2023-10-09T22:39:42.274Z,9.93
2023-10-09T22:42:28.411Z,8.60
2023-10-09T22:45:15.423Z,13.50
2023-10-09T22:48:01.629Z,7.13
2023-10-09T22:50:48.556Z,7.70
2023-10-09T22:53:38.727Z,8.60
2023-10-09T22:56:24.425Z,8.47
2023-10-09T22:59:22.165Z,8.03
2023-10-09T23:02:11.058Z,7.93
2023-10-09T23:05:05.831Z,8.47
2023-10-09T23:08:01.522Z,8.43
2023-10-09T23:10:53.428Z,7.27
2023-10-09T23:13:53.683Z,8.07
2023-10-09T23:17:14.951Z,9.87
2023-10-09T23:20:00.822Z,8.50
2023-10-09T23:22:49.633Z,9.37
2023-10-09T23:25:35.310Z,8.00
2023-10-09T23:28:39.561Z,8.20
2023-10-09T23:31:27.175Z,9.03
2023-10-09T23:34:20.499Z,8.30
2023-10-09T23:39:54.795Z,8.93
2023-10-09T23:42:40.040Z,7.60
2023-10-09T23:45:26.403Z,7.33
2023-10-09T23:48:13.959Z,9.20
2023-10-09T23:51:02.412Z,7.97
2023-10-09T23:53:53.909Z,7.17
2023-10-09T23:56:46.220Z,7.13
2023-10-09T23:59:39.920Z,6.53
